createdAt,value
2018-12-05T00:00:10.502Z,100107.72
2018-12-05T00:03:01.906Z,100111.22
2018-12-05T00:05:34.568Z,100112.56
2018-12-05T00:08:08.318Z,100118.22
2018-12-05T00:10:41.734Z,100126.52
2018-12-05T00:13:14.578Z,100120.88
2018-12-05T00:15:52.911Z,100130.86
2018-12-05T00:18:25.605Z,100123.03
2018-12-05T00:20:58.733Z,100125.22
2018-12-05T00:42:13.417Z,100153.19
2018-12-05T00:44:46.098Z,100152.34
2018-12-05T00:47:17.843Z,100154.53
2018-12-05T00:49:49.583Z,100155.84
2018-12-05T00:52:22.794Z,100155.04
2018-12-05T00:54:55.856Z,100156.81
2018-12-05T00:57:26.903Z,100151.16
2018-12-05T01:00:01.054Z,100168.12
2018-12-05T01:02:38.761Z,100167.73
2018-12-05T01:05:11.007Z,100175.55
2018-12-05T01:07:43.967Z,100166.47
2018-12-05T01:10:19.099Z,100168.19
2018-12-05T01:13:06.437Z,100157.30
2018-12-05T01:15:39.922Z,100158.61
2018-12-05T01:18:10.867Z,100165.13
2018-12-05T01:20:44.508Z,100163.40
2018-12-05T01:23:18.326Z,100157.30
2018-12-05T01:25:50.862Z,100159.48
2018-12-05T01:28:21.877Z,100162.09
2018-12-05T01:30:53.785Z,100163.40
2018-12-05T01:33:25.960Z,100172.06
2018-12-05T01:35:56.959Z,100054.27
2018-12-05T01:38:28.530Z,100172.48
2018-12-05T01:41:01.231Z,100181.61
2018-12-05T01:43:38.245Z,100180.77
2018-12-05T01:46:08.935Z,100192.89
2018-12-05T01:48:42.151Z,100187.25
2018-12-05T01:51:14.093Z,100199.48
2018-12-05T01:53:44.767Z,100192.11
2018-12-05T01:56:15.824Z,100194.27
2018-12-05T01:58:46.419Z,100195.56
2018-12-05T02:01:17.027Z,100192.98
2018-12-05T02:03:47.651Z,100203.87
2018-12-05T02:06:18.287Z,100209.11
2018-12-05T02:08:51.175Z,100209.11
2018-12-05T02:11:22.011Z,100213.02
2018-12-05T02:13:55.189Z,100216.05
2018-12-05T02:16:25.998Z,100215.62
2018-12-05T02:18:59.203Z,100220.88
2018-12-05T02:21:29.892Z,100051.41
2018-12-05T02:24:01.547Z,100225.62
2018-12-05T02:26:34.308Z,100232.98
2018-12-05T02:29:05.134Z,100230.38
2018-12-05T02:31:36.158Z,100237.34
2018-12-05T02:34:09.166Z,100240.38
2018-12-05T02:36:39.927Z,100248.65
2018-12-05T02:39:13.722Z,100247.79
2018-12-05T02:41:47.303Z,100249.09
2018-12-05T02:44:21.092Z,100248.64
2018-12-05T02:46:52.282Z,100247.78
2018-12-05T02:49:25.607Z,100244.34
2018-12-05T02:51:58.993Z,100248.27
2018-12-05T02:54:29.867Z,100116.02
2018-12-05T02:57:01.592Z,100248.70
2018-12-05T02:59:34.352Z,100254.78
2018-12-05T03:02:06.235Z,100259.13
2018-12-05T03:04:39.265Z,100265.20
2018-12-05T03:07:10.384Z,100259.09
2018-12-05T03:09:43.292Z,100263.91
2018-12-05T03:12:14.355Z,100269.09
2018-12-05T03:14:47.413Z,100269.50
2018-12-05T03:17:18.852Z,100272.55
2018-12-05T03:19:51.567Z,100269.93
2018-12-05T03:22:22.505Z,100269.06
2018-12-05T03:24:53.039Z,100269.09
2018-12-05T03:27:23.656Z,100268.64
2018-12-05T03:29:54.285Z,100271.25
2018-12-05T03:32:24.907Z,100269.11
2018-12-05T03:34:55.474Z,100275.63
2018-12-05T03:37:26.173Z,100278.66
2018-12-05T03:39:56.767Z,100272.59
2018-12-05T03:42:27.359Z,100278.23
2018-12-05T03:44:58.270Z,100281.70
2018-12-05T03:47:29.060Z,100277.78
2018-12-05T03:50:03.054Z,100286.05
2018-12-05T03:52:36.859Z,100292.56
2018-12-05T03:55:09.596Z,100296.91
2018-12-05T03:57:40.586Z,100301.69
2018-12-05T04:00:12.089Z,100309.48
2018-12-05T04:02:56.724Z,100311.66
2018-12-05T04:05:36.991Z,100306.43
2018-12-05T04:08:07.679Z,100306.45
2018-12-05T04:10:39.500Z,100314.67
2018-12-05T04:13:12.771Z,100313.80
2018-12-05T04:15:46.357Z,100310.80
2018-12-05T04:18:19.879Z,100312.95
2018-12-05T04:20:50.823Z,100312.08
2018-12-05T04:23:25.364Z,100317.71
2018-12-05T04:25:57.955Z,100309.91
2018-12-05T04:28:30.091Z,100317.31
2018-12-05T04:31:01.943Z,100319.45
2018-12-05T04:33:33.759Z,100157.59
2018-12-05T04:36:05.775Z,100330.30
2018-12-05T04:38:36.615Z,100338.96
2018-12-05T04:41:09.718Z,100336.81
2018-12-05T04:43:43.101Z,100332.46
2018-12-05T04:46:13.752Z,100339.84
2018-12-05T04:48:44.783Z,100336.83
2018-12-05T04:51:18.955Z,100339.00
2018-12-05T04:53:51.811Z,100342.90
2018-12-05T04:56:22.768Z,100344.20
2018-12-05T04:58:54.457Z,100343.77
2018-12-05T05:01:26.967Z,100349.84
2018-12-05T05:03:57.938Z,100365.42
2018-12-05T05:06:28.857Z,100363.17
2018-12-05T05:09:07.566Z,100361.00
2018-12-05T05:11:39.970Z,100355.75
2018-12-05T05:14:13.200Z,100364.52
2018-12-05T05:16:43.947Z,100363.58
2018-12-05T05:19:15.080Z,100361.11
2018-12-05T05:21:45.942Z,100377.05
2018-12-05T05:24:18.939Z,100368.48
2018-12-05T05:26:50.024Z,100375.75
2018-12-05T05:29:20.979Z,100372.56
2018-12-05T05:31:51.780Z,100386.08
2018-12-05T05:34:22.401Z,100384.03
2018-12-05T05:36:55.328Z,100389.80
2018-12-05T05:39:25.901Z,100394.13
2018-12-05T05:41:57.198Z,100397.11
2018-12-05T05:44:30.155Z,100398.47
2018-12-05T05:47:00.932Z,100392.81
2018-12-05T05:49:31.493Z,100394.42
2018-12-05T05:52:02.132Z,100400.80
2018-12-05T05:54:32.968Z,100392.13
2018-12-05T05:57:03.589Z,100392.85
2018-12-05T05:59:34.138Z,100388.58
2018-12-05T06:02:05.311Z,100401.20
2018-12-05T06:04:35.844Z,100408.57
2018-12-05T06:07:06.134Z,100407.27
2018-12-05T06:09:37.107Z,100410.34
2018-12-05T06:12:07.851Z,100415.05
2018-12-05T06:14:38.682Z,100418.98
2018-12-05T06:17:09.220Z,100421.61
2018-12-05T06:19:41.239Z,100424.39
2018-12-05T06:22:13.213Z,100425.73
2018-12-05T06:24:44.230Z,100443.22
2018-12-05T06:27:15.347Z,100445.32
2018-12-05T06:29:46.162Z,100442.38
2018-12-05T06:32:19.335Z,100444.96
2018-12-05T06:34:52.210Z,100451.48
2018-12-05T06:37:23.430Z,100451.44
2018-12-05T06:39:57.600Z,100459.14
2018-12-05T06:42:30.318Z,100447.17
2018-12-05T06:45:01.219Z,100450.14
2018-12-05T06:47:32.179Z,100448.45
2018-12-05T06:50:05.496Z,100415.00
2018-12-05T06:52:38.389Z,100450.17
2018-12-05T06:55:10.545Z,100446.25
2018-12-05T06:57:43.621Z,100444.09
2018-12-05T07:00:17.408Z,100444.52
2018-12-05T07:03:02.467Z,100440.58
2018-12-05T07:05:37.724Z,100451.44
2018-12-05T07:08:15.288Z,100450.53
2018-12-05T07:10:48.459Z,100460.05
2018-12-05T07:13:19.601Z,100466.13
2018-12-05T07:15:51.438Z,100466.55
2018-12-05T07:18:23.512Z,100469.16
2018-12-05T07:20:54.539Z,100475.67
2018-12-05T07:23:25.503Z,100471.34
2018-12-05T07:25:56.278Z,100476.56
2018-12-05T07:28:27.188Z,100487.45
2018-12-05T07:31:04.123Z,100479.67
2018-12-05T07:33:39.260Z,100478.83
2018-12-05T07:36:14.625Z,100479.27
2018-12-05T07:38:45.611Z,100479.73
2018-12-05T07:41:16.264Z,100488.86
2018-12-05T07:43:46.867Z,100489.73
2018-12-05T07:46:17.511Z,100493.60
2018-12-05T07:48:51.045Z,100496.95
2018-12-05T07:51:21.593Z,100502.57
2018-12-05T07:53:52.149Z,100502.14
2018-12-05T07:56:22.870Z,100495.19
2018-12-05T07:58:55.575Z,100501.77
2018-12-05T08:01:26.580Z,100499.67
2018-12-05T08:03:57.981Z,100496.62
2018-12-05T08:06:30.385Z,100498.34
2018-12-05T08:09:01.643Z,100500.11
2018-12-05T08:11:33.758Z,100497.06
2018-12-05T08:14:06.706Z,100510.11
2018-12-05T08:16:39.619Z,100513.58
2018-12-05T08:19:10.714Z,100510.49
2018-12-05T08:21:41.645Z,100517.86
2018-12-05T08:24:12.259Z,100523.06
2018-12-05T08:26:43.102Z,100522.16
2018-12-05T08:29:13.762Z,100515.61
2018-12-05T08:31:44.645Z,100524.34
2018-12-05T08:34:15.590Z,100521.34
2018-12-05T08:36:46.391Z,100519.09
2018-12-05T08:39:17.082Z,100517.81
2018-12-05T08:41:48.047Z,100513.03
2018-12-05T08:44:18.777Z,100515.17
2018-12-05T08:46:49.313Z,100516.54
2018-12-05T08:49:19.657Z,100518.67
2018-12-05T08:51:50.753Z,100519.92
2018-12-05T08:54:21.521Z,100512.05
2018-12-05T08:56:55.426Z,100512.54
2018-12-05T08:59:27.948Z,100511.20
2018-12-05T09:01:59.078Z,100513.84
2018-12-05T09:04:30.638Z,100516.48
2018-12-05T09:07:03.139Z,100515.61
2018-12-05T09:09:33.904Z,100525.14
2018-12-05T09:12:06.939Z,100518.12
2018-12-05T09:14:39.963Z,100526.30
2018-12-05T09:17:11.619Z,100530.77
2018-12-05T09:19:42.320Z,100532.00
2018-12-05T09:22:13.390Z,100532.45
2018-12-05T09:24:44.282Z,100524.11
2018-12-05T09:27:14.656Z,100522.34
2018-12-05T09:29:45.217Z,100524.61
2018-12-05T09:32:16.468Z,100532.84
2018-12-05T09:34:47.424Z,100535.45
2018-12-05T09:37:18.714Z,100539.58
2018-12-05T09:39:53.169Z,100530.42
2018-12-05T09:42:25.194Z,100536.49
2018-12-05T09:44:56.129Z,100533.76
2018-12-05T09:47:26.820Z,100532.46
2018-12-05T09:49:57.987Z,100522.63
2018-12-05T09:52:28.873Z,100533.59
2018-12-05T09:55:01.368Z,100525.66
2018-12-05T09:57:34.276Z,100525.71
2018-12-05T10:00:08.744Z,100519.64
2018-12-05T10:02:39.618Z,100522.89
2018-12-05T10:05:10.935Z,100517.06
2018-12-05T10:07:42.008Z,100512.20
2018-12-05T10:10:13.502Z,100510.92
2018-12-05T10:12:46.408Z,100504.79
2018-12-05T10:15:25.560Z,100504.70
2018-12-05T10:18:05.102Z,100502.56
2018-12-05T10:20:55.949Z,100509.59
2018-12-05T10:23:27.315Z,100499.76
2018-12-05T10:25:58.194Z,100502.23
2018-12-05T10:28:29.322Z,100504.83
2018-12-05T10:31:02.352Z,100500.27
2018-12-05T10:33:33.572Z,100496.14
2018-12-05T10:36:04.419Z,100490.96
2018-12-05T10:38:35.051Z,100488.22
2018-12-05T10:41:06.343Z,100490.77
2018-12-05T10:43:37.026Z,100487.83
2018-12-05T10:46:08.004Z,100479.08
2018-12-05T10:48:38.686Z,100475.86
2018-12-05T10:51:09.586Z,100473.64
2018-12-05T10:53:39.969Z,100469.28
2018-12-05T10:56:10.528Z,100467.39
2018-12-05T10:58:41.155Z,100459.91
2018-12-05T11:01:19.599Z,100455.70
2018-12-05T11:03:51.263Z,100459.54
2018-12-05T11:06:29.848Z,100461.80
2018-12-05T11:09:07.158Z,100453.38
2018-12-05T11:11:44.783Z,100453.03
2018-12-05T11:14:22.861Z,100452.81
2018-12-05T11:16:58.695Z,100445.39
2018-12-05T11:19:34.788Z,100442.56
2018-12-05T11:22:14.635Z,100436.70
2018-12-05T11:24:49.024Z,100434.47
2018-12-05T11:27:20.664Z,100435.08
2018-12-05T11:29:51.658Z,100432.43
2018-12-05T11:32:22.704Z,100425.27
2018-12-05T11:34:53.572Z,100421.86
2018-12-05T11:37:24.750Z,100420.14
2018-12-05T11:40:00.420Z,100415.20
2018-12-05T11:42:31.087Z,100419.89
2018-12-05T11:45:02.604Z,100427.05
2018-12-05T11:47:34.551Z,100422.43
2018-12-05T11:50:10.559Z,100291.39
2018-12-05T11:52:41.571Z,100427.48
2018-12-05T11:55:12.373Z,100428.00
2018-12-05T11:57:54.878Z,100424.08
2018-12-05T12:00:28.017Z,100421.45
2018-12-05T12:03:08.267Z,100421.10
2018-12-05T12:05:40.735Z,100413.93
2018-12-05T12:08:12.163Z,100413.77
2018-12-05T12:10:44.616Z,100416.23
2018-12-05T12:13:15.773Z,100423.70
2018-12-05T12:15:48.798Z,100418.80
2018-12-05T12:18:20.867Z,100417.22
2018-12-05T12:20:53.911Z,100405.67
2018-12-05T12:23:24.919Z,100418.07
2018-12-05T12:25:58.235Z,100417.96
2018-12-05T12:28:28.803Z,100424.30
2018-12-05T12:30:59.931Z,100419.32
2018-12-05T12:33:30.943Z,100421.14
2018-12-05T12:36:06.672Z,100423.64
2018-12-05T12:38:37.307Z,100417.33
2018-12-05T12:41:07.976Z,100413.44
2018-12-05T12:43:39.052Z,100409.32
2018-12-05T12:46:09.771Z,100421.25
2018-12-05T12:48:40.481Z,100409.77
2018-12-05T12:51:11.082Z,100409.39
2018-12-05T12:53:42.190Z,100402.78
2018-12-05T12:56:12.877Z,100407.86
2018-12-05T12:58:43.657Z,100407.07
2018-12-05T13:01:14.305Z,100401.19
2018-12-05T13:03:44.910Z,100403.09
2018-12-05T13:06:15.505Z,100409.97
2018-12-05T13:08:46.151Z,100404.39
2018-12-05T13:11:16.709Z,100397.70
2018-12-05T13:13:49.514Z,100398.48
2018-12-05T13:16:20.361Z,100396.76
2018-12-05T13:18:53.178Z,100398.05
2018-12-05T13:21:25.002Z,100394.71
2018-12-05T13:23:57.239Z,100404.27
2018-12-05T13:26:30.219Z,100393.19
2018-12-05T13:29:03.053Z,100390.30
2018-12-05T13:31:34.195Z,100391.71
2018-12-05T13:34:07.249Z,100393.66
2018-12-05T13:36:40.319Z,100387.36
2018-12-05T13:39:11.168Z,100388.96
2018-12-05T13:41:42.348Z,100388.45
2018-12-05T13:44:12.888Z,100393.81
2018-12-05T13:46:43.335Z,100387.39
2018-12-05T13:49:14.583Z,100391.02
2018-12-05T13:51:45.159Z,100391.86
2018-12-05T13:54:15.702Z,100390.11
2018-12-05T13:56:46.931Z,100392.87
2018-12-05T13:59:17.593Z,100385.12
2018-12-05T14:01:51.318Z,100386.74
2018-12-05T14:04:24.435Z,100381.77
2018-12-05T14:06:55.452Z,100382.47
2018-12-05T14:09:28.553Z,100385.28
2018-12-05T14:11:59.476Z,100390.06
2018-12-05T14:14:31.259Z,100382.73
2018-12-05T14:17:04.504Z,100384.06
2018-12-05T14:19:42.270Z,100383.92
2018-12-05T14:22:13.848Z,100384.73
2018-12-05T14:24:46.341Z,100383.87
2018-12-05T14:27:17.490Z,100384.58
2018-12-05T14:29:48.501Z,100382.19
2018-12-05T14:32:21.365Z,100384.53
2018-12-05T14:34:52.039Z,100386.34
2018-12-05T14:37:25.559Z,100383.97
2018-12-05T14:39:56.455Z,100386.59
2018-12-05T14:42:27.118Z,100230.81
2018-12-05T14:44:57.905Z,100383.00
2018-12-05T14:47:28.543Z,100386.45
2018-12-05T14:49:59.204Z,100381.09
2018-12-05T14:52:29.743Z,100380.33
2018-12-05T14:55:00.436Z,100379.70
2018-12-05T14:57:31.101Z,100384.62
2018-12-05T15:00:02.630Z,100386.19
2018-12-05T15:02:35.536Z,100378.20
2018-12-05T15:05:08.793Z,100383.91
2018-12-05T15:07:42.592Z,100393.61
2018-12-05T15:10:19.284Z,100389.55
2018-12-05T15:12:50.948Z,100388.62
2018-12-05T15:15:29.501Z,100390.55
2018-12-05T15:18:15.888Z,100394.55
2018-12-05T15:20:46.543Z,100393.64
2018-12-05T15:23:19.721Z,100404.09
2018-12-05T15:25:53.717Z,100400.92
2018-12-05T15:28:24.250Z,100403.37
2018-12-05T15:30:54.552Z,100401.47
2018-12-05T15:33:25.231Z,100399.44
2018-12-05T15:35:55.804Z,100397.81
2018-12-05T15:38:26.308Z,100393.59
2018-12-05T15:40:56.896Z,100391.69
2018-12-05T15:43:27.215Z,100391.44
2018-12-05T15:45:57.523Z,100387.71
2018-12-05T15:48:28.274Z,100382.78
2018-12-05T15:50:58.624Z,100377.99
2018-12-05T15:53:29.189Z,100379.27
2018-12-05T15:55:59.811Z,100375.84
2018-12-05T15:58:30.747Z,100375.72
2018-12-05T16:01:01.399Z,100370.05
2018-12-05T16:03:31.730Z,100366.42
2018-12-05T16:06:02.362Z,100362.41
2018-12-05T16:08:32.963Z,100370.30
2018-12-05T16:11:03.299Z,100376.07
2018-12-05T16:13:34.232Z,100381.55
2018-12-05T16:16:05.218Z,100368.89
2018-12-05T16:18:37.907Z,100376.77
2018-12-05T16:21:08.918Z,100374.33
2018-12-05T16:23:39.796Z,100373.58
2018-12-05T16:26:13.057Z,100377.05
2018-12-05T16:28:43.823Z,100381.73
2018-12-05T16:31:14.966Z,100389.77
2018-12-05T16:33:48.537Z,100396.75
2018-12-05T16:36:19.137Z,100387.16
2018-12-05T16:38:49.970Z,100397.14
2018-12-05T16:41:21.550Z,100397.54
2018-12-05T16:43:53.891Z,100394.03
2018-12-05T16:46:25.267Z,100391.41
2018-12-05T16:48:58.199Z,100403.59
2018-12-05T16:51:28.936Z,100390.19
2018-12-05T16:53:59.558Z,100390.23
2018-12-05T16:56:30.231Z,100390.63
2018-12-05T16:59:01.346Z,100400.23
2018-12-05T17:01:32.749Z,100386.92
2018-12-05T17:04:04.611Z,100390.53
2018-12-05T17:06:38.043Z,100393.70
2018-12-05T17:09:11.292Z,100391.11
2018-12-05T17:11:42.509Z,100405.75
2018-12-05T17:14:15.246Z,100403.95
2018-12-05T17:16:46.335Z,100396.09
2018-12-05T17:19:17.156Z,100393.55
2018-12-05T17:21:50.445Z,100393.64
2018-12-05T17:24:21.002Z,100389.32
2018-12-05T17:26:51.643Z,100378.06
2018-12-05T17:29:22.478Z,100381.55
2018-12-05T17:31:53.167Z,100376.78
2018-12-05T17:34:23.885Z,100385.46
2018-12-05T17:36:57.012Z,100384.07
2018-12-05T17:39:28.227Z,100391.28
2018-12-05T17:42:02.834Z,100393.54
2018-12-05T17:44:34.547Z,100387.55
2018-12-05T17:47:06.668Z,100389.66
2018-12-05T17:49:37.230Z,100221.02
2018-12-05T17:52:10.406Z,100378.70
2018-12-05T17:54:43.315Z,100379.15
2018-12-05T17:57:15.250Z,100388.66
2018-12-05T17:59:46.105Z,100378.25
2018-12-05T18:02:16.876Z,100382.16
2018-12-05T18:04:47.423Z,100389.87
2018-12-05T18:07:18.102Z,100386.69
2018-12-05T18:09:51.607Z,100378.08
2018-12-05T18:12:24.457Z,100387.04
2018-12-05T18:14:55.478Z,100389.69
2018-12-05T18:17:28.465Z,100392.43
2018-12-05T18:19:59.587Z,100389.91
2018-12-05T18:22:31.078Z,100393.61
2018-12-05T18:25:03.626Z,100393.71
2018-12-05T18:27:37.111Z,100395.83
2018-12-05T18:30:09.711Z,100394.14
2018-12-05T18:32:41.535Z,100387.59
2018-12-05T18:35:12.755Z,100381.34
2018-12-05T18:37:58.963Z,100384.58
2018-12-05T18:40:39.051Z,100389.95
2018-12-05T18:43:11.465Z,100387.99
2018-12-05T18:45:42.036Z,100382.81
2018-12-05T18:48:12.706Z,100387.20
2018-12-05T18:50:43.332Z,100384.72
2018-12-05T18:53:14.479Z,100378.08
2018-12-05T18:55:45.060Z,100375.47
2018-12-05T18:58:15.602Z,100365.47
2018-12-05T19:00:46.423Z,100371.97
2018-12-05T19:03:17.467Z,100356.16
2018-12-05T19:05:51.524Z,100358.16
2018-12-05T19:08:24.610Z,100356.20
2018-12-05T19:10:55.656Z,100347.38
2018-12-05T19:13:28.793Z,100348.55
2018-12-05T19:15:59.629Z,100346.69
2018-12-05T19:18:30.855Z,100334.66
2018-12-05T19:21:03.653Z,100342.92
2018-12-05T19:23:34.771Z,100345.45
2018-12-05T19:26:08.137Z,100341.72
2018-12-05T19:28:38.719Z,100343.55
2018-12-05T19:31:09.432Z,100342.48
2018-12-05T19:33:39.995Z,100341.41
2018-12-05T19:36:10.650Z,100347.52
2018-12-05T19:38:42.939Z,100343.23
2018-12-05T19:41:14.741Z,100338.03
2018-12-05T19:43:51.107Z,100337.12
2018-12-05T19:46:22.830Z,100335.67
2018-12-05T19:48:55.790Z,100346.16
2018-12-05T19:51:29.107Z,100337.35
2018-12-05T19:54:14.047Z,100342.45
2018-12-05T19:56:46.153Z,100333.36
2018-12-05T19:59:16.757Z,100340.28
2018-12-05T20:01:47.625Z,100340.30
2018-12-05T20:04:18.391Z,100336.41
2018-12-05T20:06:49.078Z,100340.26
2018-12-05T20:09:21.683Z,100335.08
2018-12-05T20:11:55.001Z,100334.58
2018-12-05T20:14:29.546Z,100316.09
2018-12-05T20:17:04.462Z,100319.34
2018-12-05T20:19:35.165Z,100161.12
2018-12-05T20:22:08.009Z,100314.97
2018-12-05T20:24:39.056Z,100315.80
2018-12-05T20:27:09.690Z,100318.34
2018-12-05T20:29:43.103Z,100314.57
2018-12-05T20:32:16.180Z,100318.86
2018-12-05T20:34:49.052Z,100321.84
2018-12-05T20:37:20.369Z,100316.52
2018-12-05T20:39:51.237Z,100318.09
2018-12-05T20:42:22.173Z,100315.44
2018-12-05T20:44:55.371Z,100306.21
2018-12-05T20:47:26.258Z,100302.58
2018-12-05T20:49:57.288Z,100309.93
2018-12-05T20:52:30.325Z,100306.88
2018-12-05T20:55:01.190Z,100293.70
2018-12-05T20:57:31.803Z,100287.98
2018-12-05T21:00:02.434Z,100300.70
2018-12-05T21:02:33.094Z,100291.50
2018-12-05T21:05:05.359Z,100280.23
2018-12-05T21:07:37.362Z,100282.95
2018-12-05T21:10:08.246Z,100280.85
2018-12-05T21:12:40.059Z,100283.42
2018-12-05T21:15:13.238Z,100271.26
2018-12-05T21:17:45.267Z,100269.05
2018-12-05T21:20:17.547Z,100264.30
2018-12-05T21:23:00.559Z,100265.20
2018-12-05T21:25:33.767Z,100253.48
2018-12-05T21:28:04.965Z,100241.77
2018-12-05T21:30:44.347Z,100238.73
2018-12-05T21:33:15.287Z,100236.97
2018-12-05T21:35:57.406Z,100235.27
2018-12-05T21:38:28.318Z,100240.47
2018-12-05T21:40:59.449Z,100239.59
2018-12-05T21:43:31.254Z,100236.56
2018-12-05T21:46:03.498Z,100236.56
2018-12-05T21:48:34.259Z,100230.92
2018-12-05T21:51:07.459Z,100235.27
2018-12-05T21:53:43.217Z,100220.52
2018-12-05T21:56:14.831Z,100223.98
2018-12-05T21:58:47.561Z,100225.30
2018-12-05T22:01:18.387Z,100223.13
2018-12-05T22:03:49.464Z,100221.84
2018-12-05T22:06:20.478Z,100222.27
2018-12-05T22:08:51.294Z,100202.25
2018-12-05T22:11:21.991Z,100204.41
2018-12-05T22:13:52.553Z,100207.45
2018-12-05T22:16:23.535Z,100199.22
2018-12-05T22:18:54.697Z,100202.31
2018-12-05T22:21:25.232Z,100199.59
2018-12-05T22:23:55.961Z,100201.17
2018-12-05T22:26:26.904Z,100205.98
2018-12-05T22:28:57.682Z,100196.89
2018-12-05T22:31:28.349Z,100196.22
2018-12-05T22:33:59.004Z,100190.59
2018-12-05T22:36:30.217Z,100196.23
2018-12-05T22:39:03.029Z,100193.64
2018-12-05T22:41:34.645Z,100185.84
2018-12-05T22:44:05.641Z,100189.65
2018-12-05T22:46:40.272Z,100185.84
2018-12-05T22:49:11.515Z,100188.02
2018-12-05T22:51:44.635Z,100177.58
2018-12-05T22:54:16.340Z,100174.98
2018-12-05T22:57:00.332Z,100178.00
2018-12-05T22:59:31.399Z,100171.04
2018-12-05T23:02:02.694Z,100165.70
2018-12-05T23:04:34.480Z,100169.52
2018-12-05T23:07:07.240Z,100166.09
2018-12-05T23:09:37.849Z,100152.67
2018-12-05T23:12:08.623Z,100156.17
2018-12-05T23:14:39.438Z,100155.77
2018-12-05T23:17:10.105Z,100153.98
2018-12-05T23:19:40.734Z,100160.48
2018-12-05T23:22:12.206Z,100153.63
2018-12-05T23:24:42.755Z,100145.75
2018-12-05T23:27:13.464Z,100133.75
2018-12-05T23:29:44.307Z,100133.91
2018-12-05T23:32:14.878Z,100127.11
2018-12-05T23:34:45.591Z,100127.09
2018-12-05T23:37:16.404Z,100119.95
2018-12-05T23:39:46.925Z,100118.91
2018-12-05T23:42:17.473Z,100124.78
2018-12-05T23:44:48.007Z,100112.70
2018-12-05T23:47:18.570Z,100101.45
2018-12-05T23:49:51.632Z,100101.89
2018-12-05T23:52:25.003Z,100091.54
2018-12-05T23:54:55.879Z,100088.59
2018-12-05T23:57:28.974Z,100079.95
2018-12-05T23:59:59.887Z,100074.91
